sensor_id;sensor_type;location;lat;lon;timestamp;temperature;humidity
4647;DHT22;2336;47.822;7.564;2023-07-20T00:00:02;22.00;93.90
4647;DHT22;2336;47.822;7.564;2023-07-20T00:02:29;21.90;93.70
4647;DHT22;2336;47.822;7.564;2023-07-20T00:04:56;21.90;93.90
4647;DHT22;2336;47.822;7.564;2023-07-20T00:07:25;21.90;94.00
4647;DHT22;2336;47.822;7.564;2023-07-20T00:09:51;21.80;93.80
4647;DHT22;2336;47.822;7.564;2023-07-20T00:12:18;21.80;93.90
4647;DHT22;2336;47.822;7.564;2023-07-20T00:14:45;21.80;94.20
4647;DHT22;2336;47.822;7.564;2023-07-20T00:17:11;21.70;94.00
4647;DHT22;2336;47.822;7.564;2023-07-20T00:19:38;21.70;94.10
4647;DHT22;2336;47.822;7.564;2023-07-20T00:22:05;21.70;94.20
4647;DHT22;2336;47.822;7.564;2023-07-20T00:24:33;21.60;94.20
4647;DHT22;2336;47.822;7.564;2023-07-20T00:27:00;21.50;94.20
4647;DHT22;2336;47.822;7.564;2023-07-20T00:29:28;21.50;94.30
4647;DHT22;2336;47.822;7.564;2023-07-20T00:31:54;21.50;94.40
4647;DHT22;2336;47.822;7.564;2023-07-20T00:34:21;21.50;94.50
4647;DHT22;2336;47.822;7.564;2023-07-20T00:36:48;21.40;94.40
4647;DHT22;2336;47.822;7.564;2023-07-20T00:39:15;21.40;94.50
4647;DHT22;2336;47.822;7.564;2023-07-20T00:41:43;21.40;94.60
4647;DHT22;2336;47.822;7.564;2023-07-20T00:44:10;21.40;94.70
4647;DHT22;2336;47.822;7.564;2023-07-20T00:46:37;21.30;94.80
4647;DHT22;2336;47.822;7.564;2023-07-20T00:49:04;21.30;94.90
4647;DHT22;2336;47.822;7.564;2023-07-20T00:51:31;21.30;95.00
4647;DHT22;2336;47.822;7.564;2023-07-20T00:53:58;21.30;95.00
4647;DHT22;2336;47.822;7.564;2023-07-20T00:56:25;21.20;94.90
4647;DHT22;2336;47.822;7.564;2023-07-20T00:58:53;21.20;95.20
4647;DHT22;2336;47.822;7.564;2023-07-20T01:01:21;21.20;94.90
4647;DHT22;2336;47.822;7.564;2023-07-20T01:03:48;21.20;95.00
4647;DHT22;2336;47.822;7.564;2023-07-20T01:06:24;21.20;94.90
4647;DHT22;2336;47.822;7.564;2023-07-20T01:09:01;21.20;95.00
4647;DHT22;2336;47.822;7.564;2023-07-20T01:11:37;21.20;95.10
4647;DHT22;2336;47.822;7.564;2023-07-20T01:14:06;21.20;95.00
4647;DHT22;2336;47.822;7.564;2023-07-20T01:16:33;21.10;95.20
4647;DHT22;2336;47.822;7.564;2023-07-20T01:19:00;21.10;95.10
4647;DHT22;2336;47.822;7.564;2023-07-20T01:21:33;21.00;95.40
4647;DHT22;2336;47.822;7.564;2023-07-20T01:27:19;20.90;95.70
4647;DHT22;2336;47.822;7.564;2023-07-20T01:30:24;20.90;96.20
4647;DHT22;2336;47.822;7.564;2023-07-20T01:32:54;20.90;96.80
4647;DHT22;2336;47.822;7.564;2023-07-20T01:35:25;20.90;97.10
4647;DHT22;2336;47.822;7.564;2023-07-20T01:37:54;20.90;96.70
4647;DHT22;2336;47.822;7.564;2023-07-20T01:40:22;20.80;96.60
4647;DHT22;2336;47.822;7.564;2023-07-20T01:42:51;20.80;96.40
4647;DHT22;2336;47.822;7.564;2023-07-20T01:45:18;20.80;96.30
4647;DHT22;2336;47.822;7.564;2023-07-20T01:47:44;20.80;96.10
4647;DHT22;2336;47.822;7.564;2023-07-20T01:50:12;20.80;96.20
4647;DHT22;2336;47.822;7.564;2023-07-20T01:52:39;20.80;95.90
4647;DHT22;2336;47.822;7.564;2023-07-20T01:55:07;20.70;95.90
4647;DHT22;2336;47.822;7.564;2023-07-20T01:57:33;20.70;95.80
4647;DHT22;2336;47.822;7.564;2023-07-20T02:00:01;20.70;96.10
4647;DHT22;2336;47.822;7.564;2023-07-20T02:02:28;20.60;96.30
4647;DHT22;2336;47.822;7.564;2023-07-20T02:04:55;20.60;96.20
4647;DHT22;2336;47.822;7.564;2023-07-20T02:07:23;20.60;96.00
4647;DHT22;2336;47.822;7.564;2023-07-20T02:09:49;20.50;96.10
4647;DHT22;2336;47.822;7.564;2023-07-20T02:12:16;20.50;96.10
4647;DHT22;2336;47.822;7.564;2023-07-20T02:14:43;20.40;96.60
4647;DHT22;2336;47.822;7.564;2023-07-20T02:17:10;20.30;97.00
4647;DHT22;2336;47.822;7.564;2023-07-20T02:19:37;20.30;96.90
4647;DHT22;2336;47.822;7.564;2023-07-20T02:22:04;20.30;97.00
4647;DHT22;2336;47.822;7.564;2023-07-20T02:24:32;20.20;96.80
4647;DHT22;2336;47.822;7.564;2023-07-20T02:26:59;20.20;96.60
4647;DHT22;2336;47.822;7.564;2023-07-20T02:29:26;20.20;97.50
4647;DHT22;2336;47.822;7.564;2023-07-20T02:31:52;20.10;97.80
4647;DHT22;2336;47.822;7.564;2023-07-20T02:34:19;20.10;98.40
4647;DHT22;2336;47.822;7.564;2023-07-20T02:36:46;20.00;98.80
4647;DHT22;2336;47.822;7.564;2023-07-20T02:39:13;20.00;99.30
4647;DHT22;2336;47.822;7.564;2023-07-20T02:41:41;19.90;99.80
4647;DHT22;2336;47.822;7.564;2023-07-20T02:44:08;19.90;99.90
4647;DHT22;2336;47.822;7.564;2023-07-20T02:46:35;20.00;99.70
4647;DHT22;2336;47.822;7.564;2023-07-20T02:49:01;20.00;99.90
4647;DHT22;2336;47.822;7.564;2023-07-20T02:51:28;19.90;99.90
4647;DHT22;2336;47.822;7.564;2023-07-20T02:53:55;19.90;99.90
4647;DHT22;2336;47.822;7.564;2023-07-20T02:56:22;19.90;99.90
4647;DHT22;2336;47.822;7.564;2023-07-20T02:58:50;19.90;99.90
4647;DHT22;2336;47.822;7.564;2023-07-20T03:01:17;19.80;99.90
4647;DHT22;2336;47.822;7.564;2023-07-20T03:03:44;19.80;99.90
4647;DHT22;2336;47.822;7.564;2023-07-20T03:06:12;19.80;99.90
4647;DHT22;2336;47.822;7.564;2023-07-20T03:08:39;19.70;99.90
4647;DHT22;2336;47.822;7.564;2023-07-20T03:11:07;19.70;99.90
4647;DHT22;2336;47.822;7.564;2023-07-20T03:13:34;19.80;99.90
4647;DHT22;2336;47.822;7.564;2023-07-20T03:16:02;19.80;99.90
4647;DHT22;2336;47.822;7.564;2023-07-20T03:18:29;19.70;99.90
4647;DHT22;2336;47.822;7.564;2023-07-20T03:20:55;19.70;99.90
4647;DHT22;2336;47.822;7.564;2023-07-20T03:23:22;19.60;99.90
4647;DHT22;2336;47.822;7.564;2023-07-20T03:25:49;19.60;99.90
4647;DHT22;2336;47.822;7.564;2023-07-20T03:28:15;19.60;99.90
4647;DHT22;2336;47.822;7.564;2023-07-20T03:30:42;19.50;99.90
4647;DHT22;2336;47.822;7.564;2023-07-20T03:33:10;19.50;99.90
4647;DHT22;2336;47.822;7.564;2023-07-20T03:35:37;19.50;99.90
4647;DHT22;2336;47.822;7.564;2023-07-20T03:38:03;19.40;99.90
4647;DHT22;2336;47.822;7.564;2023-07-20T03:40:30;19.30;99.90
4647;DHT22;2336;47.822;7.564;2023-07-20T03:42:57;19.40;99.90
4647;DHT22;2336;47.822;7.564;2023-07-20T03:45:24;19.30;99.90
4647;DHT22;2336;47.822;7.564;2023-07-20T03:47:50;19.40;99.90
4647;DHT22;2336;47.822;7.564;2023-07-20T03:50:19;19.40;99.90
4647;DHT22;2336;47.822;7.564;2023-07-20T03:52:45;19.40;99.90
4647;DHT22;2336;47.822;7.564;2023-07-20T03:55:12;19.30;99.90
4647;DHT22;2336;47.822;7.564;2023-07-20T03:57:39;19.30;99.90
4647;DHT22;2336;47.822;7.564;2023-07-20T04:00:07;19.30;99.90
4647;DHT22;2336;47.822;7.564;2023-07-20T04:02:34;19.30;99.90
4647;DHT22;2336;47.822;7.564;2023-07-20T04:05:01;19.30;99.90
4647;DHT22;2336;47.822;7.564;2023-07-20T04:07:29;19.20;99.90
4647;DHT22;2336;47.822;7.564;2023-07-20T04:09:56;19.10;99.90
4647;DHT22;2336;47.822;7.564;2023-07-20T04:12:23;19.10;99.90
4647;DHT22;2336;47.822;7.564;2023-07-20T04:14:49;19.00;99.90
4647;DHT22;2336;47.822;7.564;2023-07-20T04:17:18;19.00;99.90
4647;DHT22;2336;47.822;7.564;2023-07-20T04:19:44;19.00;99.90
4647;DHT22;2336;47.822;7.564;2023-07-20T04:22:11;18.90;99.90
4647;DHT22;2336;47.822;7.564;2023-07-20T04:24:42;18.90;99.90
4647;DHT22;2336;47.822;7.564;2023-07-20T04:27:08;18.80;99.90
4647;DHT22;2336;47.822;7.564;2023-07-20T04:29:35;18.80;99.90
4647;DHT22;2336;47.822;7.564;2023-07-20T04:32:02;18.70;99.90
4647;DHT22;2336;47.822;7.564;2023-07-20T04:34:29;18.70;99.90
4647;DHT22;2336;47.822;7.564;2023-07-20T04:36:55;18.80;99.90
4647;DHT22;2336;47.822;7.564;2023-07-20T04:39:22;18.80;99.90
4647;DHT22;2336;47.822;7.564;2023-07-20T04:41:50;18.80;99.90
4647;DHT22;2336;47.822;7.564;2023-07-20T04:44:17;18.80;99.90
4647;DHT22;2336;47.822;7.564;2023-07-20T04:46:44;18.70;99.90
4647;DHT22;2336;47.822;7.564;2023-07-20T04:49:10;18.70;99.90
4647;DHT22;2336;47.822;7.564;2023-07-20T04:51:38;18.70;99.90
4647;DHT22;2336;47.822;7.564;2023-07-20T04:54:05;18.70;99.90
4647;DHT22;2336;47.822;7.564;2023-07-20T04:56:31;18.80;99.90
4647;DHT22;2336;47.822;7.564;2023-07-20T04:59:00;18.80;99.90
4647;DHT22;2336;47.822;7.564;2023-07-20T05:01:26;18.80;99.90
4647;DHT22;2336;47.822;7.564;2023-07-20T05:03:53;18.80;99.90
4647;DHT22;2336;47.822;7.564;2023-07-20T05:06:20;18.80;99.90
4647;DHT22;2336;47.822;7.564;2023-07-20T05:08:47;18.80;99.90
4647;DHT22;2336;47.822;7.564;2023-07-20T05:11:13;18.80;99.90
4647;DHT22;2336;47.822;7.564;2023-07-20T05:13:40;18.80;99.90
4647;DHT22;2336;47.822;7.564;2023-07-20T05:16:08;18.80;99.90
4647;DHT22;2336;47.822;7.564;2023-07-20T05:18:35;18.90;99.90
4647;DHT22;2336;47.822;7.564;2023-07-20T05:21:01;18.90;99.90
4647;DHT22;2336;47.822;7.564;2023-07-20T05:23:28;19.00;99.90
4647;DHT22;2336;47.822;7.564;2023-07-20T05:25:55;19.00;99.90
4647;DHT22;2336;47.822;7.564;2023-07-20T05:28:22;19.10;99.90
4647;DHT22;2336;47.822;7.564;2023-07-20T05:30:49;19.20;99.90
4647;DHT22;2336;47.822;7.564;2023-07-20T05:33:18;19.20;99.90
4647;DHT22;2336;47.822;7.564;2023-07-20T05:35:45;19.30;99.90
4647;DHT22;2336;47.822;7.564;2023-07-20T05:38:11;19.30;99.90
4647;DHT22;2336;47.822;7.564;2023-07-20T05:40:40;19.40;99.90
4647;DHT22;2336;47.822;7.564;2023-07-20T05:43:07;19.40;99.90
4647;DHT22;2336;47.822;7.564;2023-07-20T05:45:34;19.40;99.90
4647;DHT22;2336;47.822;7.564;2023-07-20T05:48:01;19.40;99.90
4647;DHT22;2336;47.822;7.564;2023-07-20T05:50:29;19.40;99.90
4647;DHT22;2336;47.822;7.564;2023-07-20T05:52:56;19.40;99.90
4647;DHT22;2336;47.822;7.564;2023-07-20T05:55:22;19.50;99.90
4647;DHT22;2336;47.822;7.564;2023-07-20T05:57:49;19.50;99.90
4647;DHT22;2336;47.822;7.564;2023-07-20T06:00:16;19.60;99.90
4647;DHT22;2336;47.822;7.564;2023-07-20T06:02:44;19.70;99.90
4647;DHT22;2336;47.822;7.564;2023-07-20T06:05:13;19.80;99.90
4647;DHT22;2336;47.822;7.564;2023-07-20T06:07:41;19.90;99.90
4647;DHT22;2336;47.822;7.564;2023-07-20T06:10:08;20.00;99.90
4647;DHT22;2336;47.822;7.564;2023-07-20T06:12:35;20.10;99.90
4647;DHT22;2336;47.822;7.564;2023-07-20T06:15:02;20.20;99.90
4647;DHT22;2336;47.822;7.564;2023-07-20T06:17:30;20.20;99.90
4647;DHT22;2336;47.822;7.564;2023-07-20T06:19:57;20.20;99.90
4647;DHT22;2336;47.822;7.564;2023-07-20T06:22:23;20.20;99.90
4647;DHT22;2336;47.822;7.564;2023-07-20T06:24:51;20.20;99.90
4647;DHT22;2336;47.822;7.564;2023-07-20T06:27:18;20.20;99.90
4647;DHT22;2336;47.822;7.564;2023-07-20T06:29:45;20.20;99.90
4647;DHT22;2336;47.822;7.564;2023-07-20T06:32:11;20.30;99.90
4647;DHT22;2336;47.822;7.564;2023-07-20T06:34:39;20.30;99.90
4647;DHT22;2336;47.822;7.564;2023-07-20T06:37:06;20.40;99.90
4647;DHT22;2336;47.822;7.564;2023-07-20T06:39:32;20.50;99.90
4647;DHT22;2336;47.822;7.564;2023-07-20T06:42:00;20.60;99.90
4647;DHT22;2336;47.822;7.564;2023-07-20T06:44:27;20.60;99.90
4647;DHT22;2336;47.822;7.564;2023-07-20T06:46:54;20.70;99.90
4647;DHT22;2336;47.822;7.564;2023-07-20T06:49:25;20.80;99.90
4647;DHT22;2336;47.822;7.564;2023-07-20T06:51:52;20.90;99.90
4647;DHT22;2336;47.822;7.564;2023-07-20T06:54:19;21.00;99.90
4647;DHT22;2336;47.822;7.564;2023-07-20T06:56:46;21.00;99.90
4647;DHT22;2336;47.822;7.564;2023-07-20T06:59:14;21.00;99.90
4647;DHT22;2336;47.822;7.564;2023-07-20T07:01:41;21.10;99.90
4647;DHT22;2336;47.822;7.564;2023-07-20T07:04:08;21.20;99.90
4647;DHT22;2336;47.822;7.564;2023-07-20T07:06:36;21.20;99.90
4647;DHT22;2336;47.822;7.564;2023-07-20T07:09:03;21.30;99.90
4647;DHT22;2336;47.822;7.564;2023-07-20T07:11:30;21.40;99.90
4647;DHT22;2336;47.822;7.564;2023-07-20T07:13:57;21.50;99.90
4647;DHT22;2336;47.822;7.564;2023-07-20T07:16:25;21.50;99.90
4647;DHT22;2336;47.822;7.564;2023-07-20T07:18:52;21.50;99.90
4647;DHT22;2336;47.822;7.564;2023-07-20T07:21:18;21.60;99.90
4647;DHT22;2336;47.822;7.564;2023-07-20T07:23:45;21.60;99.90
4647;DHT22;2336;47.822;7.564;2023-07-20T07:26:12;21.60;99.90
4647;DHT22;2336;47.822;7.564;2023-07-20T07:28:39;21.60;99.90
4647;DHT22;2336;47.822;7.564;2023-07-20T07:31:06;21.70;99.90
4647;DHT22;2336;47.822;7.564;2023-07-20T07:33:34;21.80;99.90
4647;DHT22;2336;47.822;7.564;2023-07-20T07:36:01;21.80;99.90
4647;DHT22;2336;47.822;7.564;2023-07-20T07:38:28;21.80;99.90
4647;DHT22;2336;47.822;7.564;2023-07-20T07:40:54;21.90;99.90
4647;DHT22;2336;47.822;7.564;2023-07-20T07:43:21;22.00;99.90
4647;DHT22;2336;47.822;7.564;2023-07-20T07:45:48;22.10;99.90
4647;DHT22;2336;47.822;7.564;2023-07-20T07:48:15;22.20;99.90
4647;DHT22;2336;47.822;7.564;2023-07-20T07:50:44;22.20;99.90
4647;DHT22;2336;47.822;7.564;2023-07-20T07:53:10;22.10;99.90
4647;DHT22;2336;47.822;7.564;2023-07-20T07:55:37;22.00;99.90
4647;DHT22;2336;47.822;7.564;2023-07-20T07:58:04;22.00;99.90
4647;DHT22;2336;47.822;7.564;2023-07-20T08:00:30;22.00;99.90
4647;DHT22;2336;47.822;7.564;2023-07-20T08:02:57;22.10;99.90
4647;DHT22;2336;47.822;7.564;2023-07-20T08:05:24;22.20;99.90
4647;DHT22;2336;47.822;7.564;2023-07-20T08:07:52;22.10;99.80
4647;DHT22;2336;47.822;7.564;2023-07-20T08:10:19;22.20;99.90
4647;DHT22;2336;47.822;7.564;2023-07-20T08:12:46;22.30;99.90
4647;DHT22;2336;47.822;7.564;2023-07-20T08:15:13;22.30;99.70
4647;DHT22;2336;47.822;7.564;2023-07-20T08:17:41;22.40;98.90
4647;DHT22;2336;47.822;7.564;2023-07-20T08:20:08;22.20;99.50
4647;DHT22;2336;47.822;7.564;2023-07-20T08:22:37;22.30;99.20
4647;DHT22;2336;47.822;7.564;2023-07-20T08:25:06;22.30;99.40
4647;DHT22;2336;47.822;7.564;2023-07-20T08:27:33;22.40;99.10
4647;DHT22;2336;47.822;7.564;2023-07-20T08:30:00;22.50;98.80
4647;DHT22;2336;47.822;7.564;2023-07-20T08:32:27;22.60;98.60
4647;DHT22;2336;47.822;7.564;2023-07-20T08:34:54;22.60;98.50
4647;DHT22;2336;47.822;7.564;2023-07-20T08:37:21;22.70;98.20
4647;DHT22;2336;47.822;7.564;2023-07-20T08:39:48;22.70;97.80
4647;DHT22;2336;47.822;7.564;2023-07-20T08:42:17;22.70;98.30
4647;DHT22;2336;47.822;7.564;2023-07-20T08:44:44;22.70;98.50
4647;DHT22;2336;47.822;7.564;2023-07-20T08:47:12;22.90;98.50
4647;DHT22;2336;47.822;7.564;2023-07-20T08:49:41;23.00;98.20
4647;DHT22;2336;47.822;7.564;2023-07-20T08:52:08;23.10;97.10
4647;DHT22;2336;47.822;7.564;2023-07-20T08:54:35;23.00;97.60
4647;DHT22;2336;47.822;7.564;2023-07-20T08:57:04;23.10;97.40
4647;DHT22;2336;47.822;7.564;2023-07-20T08:59:34;23.10;97.10
4647;DHT22;2336;47.822;7.564;2023-07-20T09:02:04;23.20;96.90
4647;DHT22;2336;47.822;7.564;2023-07-20T09:04:31;23.20;97.30
4647;DHT22;2336;47.822;7.564;2023-07-20T09:06:57;23.20;96.90
4647;DHT22;2336;47.822;7.564;2023-07-20T09:09:24;23.30;96.90
4647;DHT22;2336;47.822;7.564;2023-07-20T09:11:51;23.20;96.20
4647;DHT22;2336;47.822;7.564;2023-07-20T09:14:18;23.10;96.80
4647;DHT22;2336;47.822;7.564;2023-07-20T09:16:50;23.00;96.30
4647;DHT22;2336;47.822;7.564;2023-07-20T09:19:17;22.90;96.30
4647;DHT22;2336;47.822;7.564;2023-07-20T09:21:44;23.00;96.10
4647;DHT22;2336;47.822;7.564;2023-07-20T09:24:13;23.10;96.50
4647;DHT22;2336;47.822;7.564;2023-07-20T09:26:43;23.20;97.40
4647;DHT22;2336;47.822;7.564;2023-07-20T09:29:10;23.30;96.60
4647;DHT22;2336;47.822;7.564;2023-07-20T09:31:37;23.40;96.00
4647;DHT22;2336;47.822;7.564;2023-07-20T09:34:05;23.50;96.10
4647;DHT22;2336;47.822;7.564;2023-07-20T09:36:33;23.60;95.80
4647;DHT22;2336;47.822;7.564;2023-07-20T09:39:00;23.60;95.60
4647;DHT22;2336;47.822;7.564;2023-07-20T09:41:27;23.90;96.80
4647;DHT22;2336;47.822;7.564;2023-07-20T09:43:54;24.10;96.10
4647;DHT22;2336;47.822;7.564;2023-07-20T09:46:21;24.40;94.50
4647;DHT22;2336;47.822;7.564;2023-07-20T09:48:52;24.50;94.10
4647;DHT22;2336;47.822;7.564;2023-07-20T09:51:22;24.60;94.30
4647;DHT22;2336;47.822;7.564;2023-07-20T09:53:49;24.70;93.80
4647;DHT22;2336;47.822;7.564;2023-07-20T09:56:21;24.60;93.80
4647;DHT22;2336;47.822;7.564;2023-07-20T09:58:48;24.60;94.10
4647;DHT22;2336;47.822;7.564;2023-07-20T10:01:20;24.60;93.80
4647;DHT22;2336;47.822;7.564;2023-07-20T10:03:51;24.40;94.00
4647;DHT22;2336;47.822;7.564;2023-07-20T10:06:24;24.50;93.60
4647;DHT22;2336;47.822;7.564;2023-07-20T10:08:53;24.60;93.80
4647;DHT22;2336;47.822;7.564;2023-07-20T10:11:22;24.70;93.40
4647;DHT22;2336;47.822;7.564;2023-07-20T10:13:51;24.70;94.80
4647;DHT22;2336;47.822;7.564;2023-07-20T10:16:24;24.90;94.40
4647;DHT22;2336;47.822;7.564;2023-07-20T10:18:59;25.00;93.50
4647;DHT22;2336;47.822;7.564;2023-07-20T10:21:29;24.90;92.30
4647;DHT22;2336;47.822;7.564;2023-07-20T10:23:57;24.60;92.30
4647;DHT22;2336;47.822;7.564;2023-07-20T10:26:24;24.40;93.20
4647;DHT22;2336;47.822;7.564;2023-07-20T10:28:51;24.30;93.30
4647;DHT22;2336;47.822;7.564;2023-07-20T10:31:18;24.30;93.20
4647;DHT22;2336;47.822;7.564;2023-07-20T10:33:48;24.30;93.50
4647;DHT22;2336;47.822;7.564;2023-07-20T10:36:16;24.40;93.00
4647;DHT22;2336;47.822;7.564;2023-07-20T10:38:52;24.50;93.10
4647;DHT22;2336;47.822;7.564;2023-07-20T10:41:21;24.60;92.80
4647;DHT22;2336;47.822;7.564;2023-07-20T10:43:50;24.50;92.60
4647;DHT22;2336;47.822;7.564;2023-07-20T10:46:34;24.70;92.50
4647;DHT22;2336;47.822;7.564;2023-07-20T10:49:01;24.80;92.50
4647;DHT22;2336;47.822;7.564;2023-07-20T10:51:30;24.90;91.90
4647;DHT22;2336;47.822;7.564;2023-07-20T10:54:02;24.90;92.00
4647;DHT22;2336;47.822;7.564;2023-07-20T10:56:30;24.90;92.20
4647;DHT22;2336;47.822;7.564;2023-07-20T10:58:59;25.00;92.70
4647;DHT22;2336;47.822;7.564;2023-07-20T11:01:29;25.10;92.00
4647;DHT22;2336;47.822;7.564;2023-07-20T11:03:58;25.10;91.90
4647;DHT22;2336;47.822;7.564;2023-07-20T11:06:32;25.00;91.50
4647;DHT22;2336;47.822;7.564;2023-07-20T11:09:07;25.00;92.20
4647;DHT22;2336;47.822;7.564;2023-07-20T11:11:38;25.00;92.30
4647;DHT22;2336;47.822;7.564;2023-07-20T11:14:06;24.90;92.70
4647;DHT22;2336;47.822;7.564;2023-07-20T11:16:37;24.90;92.10
4647;DHT22;2336;47.822;7.564;2023-07-20T11:19:16;25.10;92.40
4647;DHT22;2336;47.822;7.564;2023-07-20T11:21:44;25.30;92.50
4647;DHT22;2336;47.822;7.564;2023-07-20T11:24:13;25.50;92.20
4647;DHT22;2336;47.822;7.564;2023-07-20T11:26:44;25.70;91.60
4647;DHT22;2336;47.822;7.564;2023-07-20T11:29:11;25.70;91.30
4647;DHT22;2336;47.822;7.564;2023-07-20T11:31:39;25.80;91.50
4647;DHT22;2336;47.822;7.564;2023-07-20T11:34:07;25.90;92.00
4647;DHT22;2336;47.822;7.564;2023-07-20T11:36:34;25.90;90.60
4647;DHT22;2336;47.822;7.564;2023-07-20T11:39:01;25.80;90.70
4647;DHT22;2336;47.822;7.564;2023-07-20T11:41:31;25.60;90.50
4647;DHT22;2336;47.822;7.564;2023-07-20T11:43:59;25.40;90.90
4647;DHT22;2336;47.822;7.564;2023-07-20T11:46:27;25.40;91.10
4647;DHT22;2336;47.822;7.564;2023-07-20T11:48:57;25.50;90.90
4647;DHT22;2336;47.822;7.564;2023-07-20T11:51:25;25.50;91.10
4647;DHT22;2336;47.822;7.564;2023-07-20T11:53:52;25.60;90.80
4647;DHT22;2336;47.822;7.564;2023-07-20T11:56:19;25.70;91.10
4647;DHT22;2336;47.822;7.564;2023-07-20T11:58:47;25.80;90.30
4647;DHT22;2336;47.822;7.564;2023-07-20T12:01:15;25.70;89.90
4647;DHT22;2336;47.822;7.564;2023-07-20T12:03:42;25.60;90.30
4647;DHT22;2336;47.822;7.564;2023-07-20T12:06:09;25.60;90.10
4647;DHT22;2336;47.822;7.564;2023-07-20T12:08:38;25.80;90.80
4647;DHT22;2336;47.822;7.564;2023-07-20T12:11:06;26.00;90.20
4647;DHT22;2336;47.822;7.564;2023-07-20T12:13:37;26.20;88.20
4647;DHT22;2336;47.822;7.564;2023-07-20T12:16:09;26.20;87.60
4647;DHT22;2336;47.822;7.564;2023-07-20T12:18:36;26.20;87.80
4647;DHT22;2336;47.822;7.564;2023-07-20T12:21:03;26.10;87.80
4647;DHT22;2336;47.822;7.564;2023-07-20T12:23:35;26.00;87.90
4647;DHT22;2336;47.822;7.564;2023-07-20T12:26:02;25.90;87.60
4647;DHT22;2336;47.822;7.564;2023-07-20T12:28:29;25.90;87.80
4647;DHT22;2336;47.822;7.564;2023-07-20T12:30:56;26.00;89.70
4647;DHT22;2336;47.822;7.564;2023-07-20T12:33:24;26.10;88.70
4647;DHT22;2336;47.822;7.564;2023-07-20T12:35:51;26.20;88.40
4647;DHT22;2336;47.822;7.564;2023-07-20T12:38:21;26.50;90.00
4647;DHT22;2336;47.822;7.564;2023-07-20T12:40:49;26.80;89.20
4647;DHT22;2336;47.822;7.564;2023-07-20T12:43:15;26.90;88.70
4647;DHT22;2336;47.822;7.564;2023-07-20T12:45:42;27.00;88.40
4647;DHT22;2336;47.822;7.564;2023-07-20T12:48:09;26.90;84.50
4647;DHT22;2336;47.822;7.564;2023-07-20T12:50:37;26.80;84.20
4647;DHT22;2336;47.822;7.564;2023-07-20T12:53:04;26.70;84.90
4647;DHT22;2336;47.822;7.564;2023-07-20T12:55:30;26.80;86.50
4647;DHT22;2336;47.822;7.564;2023-07-20T12:57:58;26.90;85.20
4647;DHT22;2336;47.822;7.564;2023-07-20T13:00:24;27.00;85.00
4647;DHT22;2336;47.822;7.564;2023-07-20T13:02:51;27.20;83.80
4647;DHT22;2336;47.822;7.564;2023-07-20T13:05:18;27.20;82.60
4647;DHT22;2336;47.822;7.564;2023-07-20T13:07:46;27.10;83.40
4647;DHT22;2336;47.822;7.564;2023-07-20T13:10:13;26.90;82.80
4647;DHT22;2336;47.822;7.564;2023-07-20T13:12:40;26.90;83.60
4647;DHT22;2336;47.822;7.564;2023-07-20T13:15:07;26.90;85.00
4647;DHT22;2336;47.822;7.564;2023-07-20T13:17:35;26.90;83.60
4647;DHT22;2336;47.822;7.564;2023-07-20T13:20:03;26.90;84.70
4647;DHT22;2336;47.822;7.564;2023-07-20T13:22:30;26.80;82.90
4647;DHT22;2336;47.822;7.564;2023-07-20T13:24:58;26.90;83.90
4647;DHT22;2336;47.822;7.564;2023-07-20T13:27:25;27.10;83.40
4647;DHT22;2336;47.822;7.564;2023-07-20T13:29:52;27.20;82.90
4647;DHT22;2336;47.822;7.564;2023-07-20T13:32:18;27.50;83.70
4647;DHT22;2336;47.822;7.564;2023-07-20T13:34:45;27.70;81.50
4647;DHT22;2336;47.822;7.564;2023-07-20T13:37:13;27.60;80.30
4647;DHT22;2336;47.822;7.564;2023-07-20T13:39:41;27.80;82.30
4647;DHT22;2336;47.822;7.564;2023-07-20T13:42:10;27.70;83.40
4647;DHT22;2336;47.822;7.564;2023-07-20T13:44:38;27.80;82.70
4647;DHT22;2336;47.822;7.564;2023-07-20T13:47:05;27.80;82.90
4647;DHT22;2336;47.822;7.564;2023-07-20T13:49:32;27.80;79.90
4647;DHT22;2336;47.822;7.564;2023-07-20T13:51:58;27.80;80.50
4647;DHT22;2336;47.822;7.564;2023-07-20T13:54:25;27.70;79.40
4647;DHT22;2336;47.822;7.564;2023-07-20T13:56:52;27.40;79.30
4647;DHT22;2336;47.822;7.564;2023-07-20T13:59:20;27.40;79.60
4647;DHT22;2336;47.822;7.564;2023-07-20T14:01:48;27.30;79.20
4647;DHT22;2336;47.822;7.564;2023-07-20T14:04:15;27.30;80.40
4647;DHT22;2336;47.822;7.564;2023-07-20T14:06:42;27.40;81.10
4647;DHT22;2336;47.822;7.564;2023-07-20T14:09:09;27.40;79.00
4647;DHT22;2336;47.822;7.564;2023-07-20T14:11:36;27.50;80.40
4647;DHT22;2336;47.822;7.564;2023-07-20T14:14:03;27.70;79.20
4647;DHT22;2336;47.822;7.564;2023-07-20T14:16:31;27.60;78.40
4647;DHT22;2336;47.822;7.564;2023-07-20T14:18:58;27.70;80.00
4647;DHT22;2336;47.822;7.564;2023-07-20T14:21:25;28.00;81.80
4647;DHT22;2336;47.822;7.564;2023-07-20T14:23:52;28.20;79.70
4647;DHT22;2336;47.822;7.564;2023-07-20T14:26:19;28.20;78.20
4647;DHT22;2336;47.822;7.564;2023-07-20T14:28:46;28.10;77.00
4647;DHT22;2336;47.822;7.564;2023-07-20T14:31:13;28.10;76.50
4647;DHT22;2336;47.822;7.564;2023-07-20T14:33:41;28.10;77.60
4647;DHT22;2336;47.822;7.564;2023-07-20T14:36:08;28.00;77.60
4647;DHT22;2336;47.822;7.564;2023-07-20T14:38:35;28.10;77.90
4647;DHT22;2336;47.822;7.564;2023-07-20T14:41:02;28.30;78.80
4647;DHT22;2336;47.822;7.564;2023-07-20T14:43:31;28.30;76.60
4647;DHT22;2336;47.822;7.564;2023-07-20T14:45:58;28.40;79.60
4647;DHT22;2336;47.822;7.564;2023-07-20T14:48:24;28.40;76.00
4647;DHT22;2336;47.822;7.564;2023-07-20T14:50:52;28.20;75.80
4647;DHT22;2336;47.822;7.564;2023-07-20T14:53:19;27.90;76.60
4647;DHT22;2336;47.822;7.564;2023-07-20T14:55:46;27.70;76.10
4647;DHT22;2336;47.822;7.564;2023-07-20T14:58:12;27.80;75.80
4647;DHT22;2336;47.822;7.564;2023-07-20T15:00:39;27.70;77.00
4647;DHT22;2336;47.822;7.564;2023-07-20T15:03:06;27.80;77.20
4647;DHT22;2336;47.822;7.564;2023-07-20T15:05:35;27.70;75.60
4647;DHT22;2336;47.822;7.564;2023-07-20T15:08:04;27.70;76.10
4647;DHT22;2336;47.822;7.564;2023-07-20T15:10:32;27.50;76.30
4647;DHT22;2336;47.822;7.564;2023-07-20T15:12:59;27.40;77.20
4647;DHT22;2336;47.822;7.564;2023-07-20T15:15:25;27.40;77.30
4647;DHT22;2336;47.822;7.564;2023-07-20T15:17:52;27.50;77.80
4647;DHT22;2336;47.822;7.564;2023-07-20T15:20:19;27.60;76.20
4647;DHT22;2336;47.822;7.564;2023-07-20T15:22:46;27.70;76.30
4647;DHT22;2336;47.822;7.564;2023-07-20T15:25:14;27.80;76.30
4647;DHT22;2336;47.822;7.564;2023-07-20T15:27:41;27.80;75.90
4647;DHT22;2336;47.822;7.564;2023-07-20T15:30:09;27.80;76.10
4647;DHT22;2336;47.822;7.564;2023-07-20T15:32:36;27.80;76.00
4647;DHT22;2336;47.822;7.564;2023-07-20T15:35:04;27.90;75.20
4647;DHT22;2336;47.822;7.564;2023-07-20T15:37:31;27.90;75.90
4647;DHT22;2336;47.822;7.564;2023-07-20T15:39:58;27.90;74.70
4647;DHT22;2336;47.822;7.564;2023-07-20T15:42:30;27.90;74.90
4647;DHT22;2336;47.822;7.564;2023-07-20T15:44:57;27.90;75.60
4647;DHT22;2336;47.822;7.564;2023-07-20T15:47:25;27.90;76.20
4647;DHT22;2336;47.822;7.564;2023-07-20T15:49:52;28.00;75.80
4647;DHT22;2336;47.822;7.564;2023-07-20T15:52:19;28.00;75.50
4647;DHT22;2336;47.822;7.564;2023-07-20T15:54:46;27.90;77.10
4647;DHT22;2336;47.822;7.564;2023-07-20T15:57:13;27.80;75.00
4647;DHT22;2336;47.822;7.564;2023-07-20T15:59:42;27.80;75.60
4647;DHT22;2336;47.822;7.564;2023-07-20T16:02:08;27.80;75.60
4647;DHT22;2336;47.822;7.564;2023-07-20T16:04:35;27.80;74.20
4647;DHT22;2336;47.822;7.564;2023-07-20T16:07:02;27.80;76.50